Strona główna
METAR-TAF:

METAR-TAF

Lotnisko :

Benson, Anglia

Szerokość geograficzna: 51-37N, Długość geograficzna: 001-05W, wysokość: 63 m

Aktualna obserwacja pogody

Raport powstał 1 godzina i 13 minut temu, godzina 15:50 UTC
Wiatr 5 kt od północ
Temperatura 8°C
Wilgotność 81%
Ciśnienie 1014 hPa
Widzialność 10 km lub więcej
Rozproszone chmury na wysokości 3900 ft

METAR: EGUB 251550Z 35005KT 9999 SCT039 08/05 Q1014 NOSIG RMK BLU BLU

czas: 17:03 (17:03 UTC)

Prognoza

Raport powstał 3 godziny i 37 minut temu, godzina 13:26 UTC
Prognoza ważna od 25 godzina 15 UTC do 25 godzina 24 UTC
Wiatr 6 kt od północny zachód
Widzialność 10 km lub więcej
Mało chmury na wysokości 1400 ft
Rozproszone chmury na wysokości 2500 ft
Prawdopodobieństwo 40% :
Przejściowo
od 25 godzina 15 UTC do 25 godzina 19 UTC
Rozproszone chmury na wysokości 1400 ft
Prawdopodobieństwo 40%
od 25 godzina 21 UTC do 25 godzina 24 UTC
Widzialność: 5000 m
zamglenie

TAF: EGUB 251326Z 2515/2524 31006KT 9999 FEW014 SCT025 PROB40 TEMPO 2515/2519 SCT014 PROB40 2521/2524 5000 BR

Obserwacja i prognoza pogody dla ponad 4000 lotnisk (raport METAR i TAF).

Dostępne stacje oznaczono żółtymi i czerwonymi punktami na mapie.

Najedź kursorem aby zobaczyć nazwę stacji.

Kliknij aby zobaczyć obserwacje i prognozy pogody.

Aby zmienić mapę: kliknij na zielony przycisk z czarnym krzyżykiem, aby powiększyć; na zielony przycisk z myślnikiem, aby pomniejszyć; na zielone strzałki, aby przejść do map sąsiednich.


METAR-TAF: